createdAt,value
2018-06-17T00:01:04.170Z,99.90
2018-06-17T00:03:32.277Z,99.90
2018-06-17T00:08:27.925Z,99.90
2018-06-17T00:10:55.993Z,99.90
2018-06-17T00:13:24.048Z,99.90
2018-06-17T00:15:52.125Z,99.90
2018-06-17T00:20:47.837Z,99.90
2018-06-17T00:23:15.933Z,99.90
2018-06-17T00:25:44.068Z,99.90
2018-06-17T00:28:12.164Z,99.90
2018-06-17T00:30:40.205Z,99.90
2018-06-17T00:33:08.281Z,99.90
2018-06-17T00:35:36.317Z,99.90
2018-06-17T00:38:04.413Z,99.90
2018-06-17T00:40:32.499Z,99.90
2018-06-17T00:43:00.610Z,99.90
2018-06-17T00:45:28.761Z,99.90
2018-06-17T00:47:56.872Z,99.90
2018-06-17T00:50:24.917Z,99.90
2018-06-17T00:52:52.985Z,99.90
2018-06-17T00:55:21.042Z,99.90
2018-06-17T00:57:52.093Z,99.90
2018-06-17T01:00:21.428Z,99.90
2018-06-17T01:02:49.514Z,99.90
2018-06-17T01:05:17.940Z,99.90
2018-06-17T01:07:46.129Z,99.90
2018-06-17T01:10:14.199Z,99.90
2018-06-17T01:15:09.867Z,99.90
2018-06-17T01:17:38.400Z,99.90
2018-06-17T01:20:08.366Z,99.90
2018-06-17T01:22:36.459Z,99.90
2018-06-17T01:25:04.526Z,99.90
2018-06-17T01:27:32.622Z,99.90
2018-06-17T01:30:00.737Z,99.90
2018-06-17T01:32:28.803Z,99.90
2018-06-17T01:34:56.853Z,99.90
2018-06-17T01:37:24.932Z,99.90
2018-06-17T01:39:53.027Z,99.90
2018-06-17T01:42:21.110Z,99.90
2018-06-17T01:44:49.193Z,99.90
2018-06-17T01:47:17.264Z,99.90
2018-06-17T01:49:45.389Z,99.90
2018-06-17T01:52:13.422Z,99.90
2018-06-17T01:54:41.538Z,99.90
2018-06-17T01:57:09.558Z,99.90
2018-06-17T01:59:37.640Z,99.90
2018-06-17T02:02:05.829Z,99.90
2018-06-17T02:04:39.054Z,99.90
2018-06-17T02:07:12.370Z,99.90
2018-06-17T02:09:45.693Z,99.90
2018-06-17T02:12:17.971Z,99.90
2018-06-17T02:14:51.227Z,99.90
2018-06-17T02:17:20.432Z,99.90
2018-06-17T02:19:48.504Z,99.90
2018-06-17T02:22:16.537Z,99.90
2018-06-17T02:24:44.613Z,99.90
2018-06-17T02:27:12.675Z,99.90
2018-06-17T02:29:40.762Z,99.90
2018-06-17T02:32:08.832Z,99.90
2018-06-17T02:34:37.274Z,99.90
2018-06-17T02:37:05.589Z,99.90
2018-06-17T02:39:39.405Z,99.90
2018-06-17T02:42:08.230Z,99.90
2018-06-17T02:44:36.325Z,99.90
2018-06-17T02:47:09.670Z,99.90
2018-06-17T02:49:39.613Z,99.90
2018-06-17T02:52:13.308Z,99.90
2018-06-17T02:54:42.853Z,99.90
2018-06-17T02:57:12.913Z,99.90
2018-06-17T02:59:41.630Z,99.90
2018-06-17T03:02:09.670Z,99.90
2018-06-17T03:04:37.749Z,99.90
2018-06-17T03:07:05.818Z,99.90
2018-06-17T03:09:33.905Z,99.90
2018-06-17T03:12:01.941Z,99.90
2018-06-17T03:14:30.029Z,99.90
2018-06-17T03:17:00.125Z,99.90
2018-06-17T03:19:28.213Z,99.90
2018-06-17T03:21:56.373Z,99.90
2018-06-17T03:24:29.833Z,99.90
2018-06-17T03:27:03.285Z,99.90
2018-06-17T03:29:36.638Z,99.90
2018-06-17T03:32:09.994Z,99.90
2018-06-17T03:34:38.101Z,99.90
2018-06-17T03:37:06.164Z,99.90
2018-06-17T03:39:34.261Z,99.90
2018-06-17T03:42:02.342Z,99.90
2018-06-17T03:44:30.392Z,99.90
2018-06-17T03:46:58.452Z,99.90
2018-06-17T03:49:26.536Z,99.90
2018-06-17T03:51:54.605Z,99.90
2018-06-17T03:54:22.654Z,99.90
2018-06-17T03:56:50.726Z,99.90
2018-06-17T03:59:18.774Z,99.90
2018-06-17T04:01:47.953Z,99.90
2018-06-17T04:04:15.996Z,99.90
2018-06-17T04:06:44.091Z,99.90
2018-06-17T04:09:12.114Z,99.90
2018-06-17T04:11:40.178Z,99.90
2018-06-17T04:14:08.210Z,99.90
2018-06-17T04:16:36.284Z,99.90
2018-06-17T04:19:04.313Z,99.90
2018-06-17T04:21:32.410Z,99.90
2018-06-17T04:26:28.094Z,99.90
2018-06-17T04:28:56.166Z,99.90
2018-06-17T04:31:24.233Z,99.90
2018-06-17T04:33:52.271Z,99.90
2018-06-17T04:36:20.343Z,99.90
2018-06-17T04:38:48.366Z,99.90
2018-06-17T04:41:16.446Z,99.90
2018-06-17T04:43:44.489Z,99.90
2018-06-17T04:46:12.565Z,99.90
2018-06-17T04:48:40.604Z,99.90
2018-06-17T04:51:08.736Z,99.90
2018-06-17T04:53:36.801Z,99.90
2018-06-17T04:56:04.931Z,99.90
2018-06-17T04:58:32.966Z,99.90
2018-06-17T05:01:01.175Z,99.90
2018-06-17T05:03:29.248Z,99.90
2018-06-17T05:05:57.299Z,99.90
2018-06-17T05:08:25.363Z,99.90
2018-06-17T05:10:53.406Z,99.90
2018-06-17T05:13:21.460Z,99.90
2018-06-17T05:15:49.512Z,99.90
2018-06-17T05:18:17.581Z,99.90
2018-06-17T05:20:45.637Z,99.90
2018-06-17T05:23:13.711Z,99.90
2018-06-17T05:25:41.762Z,99.90
2018-06-17T05:28:09.821Z,99.90
2018-06-17T05:30:37.861Z,99.90
2018-06-17T05:33:05.947Z,99.90
2018-06-17T05:35:33.982Z,99.90
2018-06-17T05:38:02.059Z,99.90
2018-06-17T05:40:30.117Z,99.90
2018-06-17T05:42:58.191Z,99.90
2018-06-17T05:45:26.233Z,99.90
2018-06-17T05:47:54.281Z,99.90
2018-06-17T05:50:22.305Z,99.90
2018-06-17T05:52:50.404Z,99.90
2018-06-17T05:55:18.433Z,99.90
2018-06-17T05:57:46.510Z,99.90
2018-06-17T06:00:14.553Z,99.90
2018-06-17T06:02:42.641Z,99.90
2018-06-17T06:05:10.683Z,99.90
2018-06-17T06:07:38.762Z,99.90
2018-06-17T06:10:06.777Z,99.90
2018-06-17T06:12:34.874Z,99.90
2018-06-17T06:15:02.950Z,99.90
2018-06-17T06:17:31.025Z,99.90
2018-06-17T06:19:59.061Z,99.90
2018-06-17T06:22:27.145Z,99.90
2018-06-17T06:24:55.222Z,99.90
2018-06-17T06:27:23.258Z,99.90
2018-06-17T06:29:51.411Z,99.90
2018-06-17T06:32:19.412Z,99.90
2018-06-17T06:34:47.526Z,99.90
2018-06-17T06:37:15.560Z,99.90
2018-06-17T06:39:43.668Z,99.90
2018-06-17T06:42:11.705Z,99.90
2018-06-17T06:44:39.781Z,99.90
2018-06-17T06:47:07.806Z,99.90
2018-06-17T06:49:35.877Z,99.90
2018-06-17T06:52:03.993Z,99.90
2018-06-17T06:54:32.094Z,99.90
2018-06-17T06:57:00.169Z,99.90
2018-06-17T06:59:28.263Z,99.90
2018-06-17T07:02:01.799Z,99.90
2018-06-17T07:04:35.563Z,99.90
2018-06-17T07:07:08.870Z,99.90
2018-06-17T07:09:42.461Z,99.90
2018-06-17T07:12:10.583Z,99.90
2018-06-17T07:14:38.661Z,99.90
2018-06-17T07:17:12.077Z,99.90
2018-06-17T07:19:40.135Z,99.90
2018-06-17T07:22:08.162Z,99.90
2018-06-17T07:24:36.989Z,99.90
2018-06-17T07:27:10.494Z,99.90
2018-06-17T07:29:44.625Z,99.90
2018-06-17T07:32:12.673Z,99.90
2018-06-17T07:34:40.773Z,99.90
2018-06-17T07:37:08.857Z,99.90
2018-06-17T07:41:46.232Z,99.90
2018-06-17T07:44:14.313Z,99.90
2018-06-17T07:46:42.394Z,99.90
2018-06-17T07:49:25.303Z,99.90
2018-06-17T07:51:59.022Z,99.90
2018-06-17T07:54:27.150Z,99.90
2018-06-17T07:57:06.696Z,99.90
2018-06-17T07:59:35.189Z,99.90
2018-06-17T08:02:03.849Z,99.90
2018-06-17T08:04:31.949Z,99.90
2018-06-17T08:06:59.984Z,99.90
2018-06-17T08:09:28.052Z,99.90
2018-06-17T08:11:57.166Z,99.90
2018-06-17T08:14:25.789Z,99.90
2018-06-17T08:16:54.522Z,99.90
2018-06-17T08:19:23.353Z,99.90
2018-06-17T08:21:51.426Z,99.90
2018-06-17T08:24:19.507Z,97.80
2018-06-17T08:26:51.053Z,96.20
2018-06-17T08:29:19.161Z,98.70
2018-06-17T08:31:47.194Z,97.20
2018-06-17T08:34:15.273Z,98.50
2018-06-17T08:36:43.332Z,99.90
2018-06-17T08:39:13.436Z,92.30
2018-06-17T08:41:41.564Z,96.00
2018-06-17T08:44:10.402Z,96.00
2018-06-17T08:46:38.469Z,89.00
2018-06-17T08:49:06.721Z,92.60
2018-06-17T08:51:42.619Z,89.90
2018-06-17T08:54:14.062Z,88.80
2018-06-17T08:56:51.881Z,90.60
2018-06-17T08:59:19.952Z,90.80
2018-06-17T09:01:48.070Z,84.20
2018-06-17T09:04:16.153Z,89.00
2018-06-17T09:06:54.242Z,83.90
2018-06-17T09:09:22.350Z,79.00
2018-06-17T09:11:50.885Z,82.00
2018-06-17T09:14:18.969Z,77.00
2018-06-17T09:16:53.870Z,78.80
2018-06-17T09:19:24.056Z,76.30
2018-06-17T09:21:52.110Z,78.30
2018-06-17T09:24:25.673Z,76.80
2018-06-17T09:26:53.714Z,73.70
2018-06-17T09:29:21.771Z,77.10
2018-06-17T09:31:49.841Z,81.30
2018-06-17T09:34:17.970Z,71.60
2018-06-17T09:36:46.023Z,70.50
2018-06-17T09:39:14.102Z,71.30
2018-06-17T09:44:09.740Z,71.00
2018-06-17T09:46:37.793Z,76.40
2018-06-17T09:49:05.862Z,73.80
2018-06-17T09:51:33.894Z,71.50
2018-06-17T09:54:02.001Z,70.30
2018-06-17T09:56:30.069Z,72.50
2018-06-17T09:59:01.497Z,75.30
2018-06-17T10:01:29.583Z,68.70
2018-06-17T10:03:57.656Z,69.50
2018-06-17T10:06:25.785Z,71.70
2018-06-17T10:08:53.831Z,65.90
2018-06-17T10:11:21.909Z,67.50
2018-06-17T10:13:49.950Z,67.60
2018-06-17T10:16:18.042Z,68.10
2018-06-17T10:18:46.088Z,65.90
2018-06-17T10:21:14.197Z,65.50
2018-06-17T10:23:42.266Z,62.90
2018-06-17T10:26:10.356Z,61.70
2018-06-17T10:28:38.402Z,65.70
2018-06-17T10:31:07.445Z,65.80
2018-06-17T10:33:35.907Z,62.20
2018-06-17T10:36:04.006Z,61.10
2018-06-17T10:38:32.079Z,63.60
2018-06-17T10:41:00.158Z,64.60
2018-06-17T10:43:32.090Z,62.30
2018-06-17T10:46:00.186Z,63.50
2018-06-17T10:48:28.261Z,65.30
2018-06-17T10:50:56.336Z,61.00
2018-06-17T10:53:24.389Z,63.80
2018-06-17T10:55:52.532Z,64.50
2018-06-17T10:58:20.575Z,61.00
2018-06-17T11:01:05.004Z,61.10
2018-06-17T11:03:33.065Z,59.80
2018-06-17T11:06:01.153Z,61.20
2018-06-17T11:08:29.186Z,59.60
2018-06-17T11:10:57.270Z,60.10
2018-06-17T11:13:25.342Z,61.30
2018-06-17T11:15:53.437Z,60.00
2018-06-17T11:18:26.962Z,61.40
2018-06-17T11:20:55.222Z,60.80
2018-06-17T11:23:23.394Z,58.60
2018-06-17T11:25:51.617Z,58.80
2018-06-17T11:28:19.895Z,60.90
2018-06-17T11:30:48.205Z,57.90
2018-06-17T11:33:16.385Z,60.70
2018-06-17T11:35:44.462Z,58.60
2018-06-17T11:40:40.122Z,58.80
2018-06-17T11:43:08.235Z,57.70
2018-06-17T11:45:36.269Z,57.30
2018-06-17T11:48:04.381Z,59.50
2018-06-17T11:50:32.430Z,60.10
2018-06-17T11:53:00.497Z,59.00
2018-06-17T11:55:28.657Z,60.20
2018-06-17T11:57:56.770Z,58.10
2018-06-17T12:02:52.494Z,56.40
2018-06-17T12:05:20.569Z,58.30
2018-06-17T12:07:48.648Z,55.80
2018-06-17T12:10:16.694Z,56.30
2018-06-17T12:12:44.752Z,57.00
2018-06-17T12:15:12.788Z,58.80
2018-06-17T12:17:40.958Z,57.00
2018-06-17T12:20:08.997Z,56.40
2018-06-17T12:22:37.085Z,56.70
2018-06-17T12:25:05.146Z,57.20
2018-06-17T12:27:33.264Z,54.20
2018-06-17T12:30:01.563Z,58.90
2018-06-17T12:32:29.640Z,55.90
2018-06-17T12:34:57.667Z,57.20
2018-06-17T12:37:25.741Z,55.70
2018-06-17T12:39:53.774Z,55.10
2018-06-17T12:42:21.860Z,56.20
2018-06-17T12:44:49.918Z,55.80
2018-06-17T12:47:17.985Z,56.60
2018-06-17T12:49:46.054Z,56.70
2018-06-17T12:52:14.179Z,56.20
2018-06-17T12:54:42.453Z,56.60
2018-06-17T12:57:10.553Z,57.40
2018-06-17T12:59:38.617Z,58.40
2018-06-17T13:02:06.709Z,55.90
2018-06-17T13:04:34.854Z,56.20
2018-06-17T13:07:02.857Z,56.50
2018-06-17T13:09:30.958Z,56.60
2018-06-17T13:11:59.104Z,57.20
2018-06-17T13:14:27.175Z,57.50
2018-06-17T13:16:55.259Z,58.00
2018-06-17T13:19:23.374Z,59.10
2018-06-17T13:21:51.408Z,58.50
2018-06-17T13:24:19.508Z,58.10
2018-06-17T13:26:47.605Z,58.20
2018-06-17T13:29:16.551Z,59.20
2018-06-17T13:31:44.590Z,58.60
2018-06-17T13:34:12.662Z,59.00
2018-06-17T13:36:40.722Z,58.10
2018-06-17T13:39:09.368Z,58.40
2018-06-17T13:41:37.553Z,59.00
2018-06-17T13:44:05.658Z,59.00
2018-06-17T13:46:33.826Z,59.80
2018-06-17T13:49:01.915Z,58.20
2018-06-17T13:51:29.957Z,59.00
2018-06-17T13:53:58.281Z,58.90
2018-06-17T13:56:26.341Z,60.60
2018-06-17T13:58:54.587Z,58.60
2018-06-17T14:01:22.693Z,59.90
2018-06-17T14:03:50.779Z,59.90
2018-06-17T14:06:20.082Z,60.80
2018-06-17T14:08:48.229Z,59.50
2018-06-17T14:11:16.339Z,58.80
2018-06-17T14:13:44.397Z,57.60
2018-06-17T14:16:12.469Z,58.30
2018-06-17T14:18:40.557Z,58.50
2018-06-17T14:21:08.673Z,58.60
2018-06-17T14:23:36.725Z,58.40
2018-06-17T14:26:04.866Z,58.00
2018-06-17T14:28:32.913Z,58.50
2018-06-17T14:31:00.994Z,58.60
2018-06-17T14:33:29.041Z,58.70
2018-06-17T14:35:57.816Z,58.30
2018-06-17T14:38:25.921Z,59.50
2018-06-17T14:41:06.581Z,58.80
2018-06-17T14:43:39.826Z,59.70
2018-06-17T14:46:16.879Z,60.60
2018-06-17T14:48:50.227Z,59.20
2018-06-17T14:51:23.693Z,57.80
2018-06-17T14:53:51.750Z,59.30
2018-06-17T14:56:19.819Z,58.70
2018-06-17T14:58:48.008Z,57.60
2018-06-17T15:01:16.266Z,58.80
2018-06-17T15:03:44.443Z,57.70
2018-06-17T15:06:12.541Z,58.10
2018-06-17T15:11:08.392Z,58.70
2018-06-17T15:13:36.549Z,59.40
2018-06-17T15:16:04.641Z,60.20
2018-06-17T15:18:38.159Z,59.60
2018-06-17T15:21:06.240Z,59.20
2018-06-17T15:23:34.305Z,59.50
2018-06-17T15:26:02.381Z,60.00
2018-06-17T15:28:30.417Z,59.90
2018-06-17T15:31:03.724Z,60.10
2018-06-17T15:33:37.062Z,59.70
2018-06-17T15:36:10.715Z,59.90
2018-06-17T15:38:52.046Z,59.50
2018-06-17T15:41:27.282Z,59.60
2018-06-17T15:43:56.715Z,59.80
2018-06-17T15:46:25.391Z,60.50
2018-06-17T15:48:53.545Z,60.60
2018-06-17T15:51:21.666Z,60.70
2018-06-17T15:53:49.987Z,61.80
2018-06-17T15:56:18.135Z,61.30
2018-06-17T15:58:46.349Z,61.00
2018-06-17T16:01:14.573Z,60.80
2018-06-17T16:03:42.762Z,60.80
2018-06-17T16:06:11.013Z,61.40
2018-06-17T16:08:39.295Z,60.80
2018-06-17T16:11:07.727Z,60.70
2018-06-17T16:13:41.255Z,60.70
2018-06-17T16:16:14.714Z,61.80
2018-06-17T16:18:48.163Z,61.90
2018-06-17T16:21:16.367Z,61.50
2018-06-17T16:23:45.754Z,61.50
2018-06-17T16:26:13.999Z,61.90
2018-06-17T16:28:42.623Z,62.10
2018-06-17T16:31:10.815Z,62.00
2018-06-17T16:33:39.094Z,62.80
2018-06-17T16:36:17.572Z,62.30
2018-06-17T16:38:45.880Z,62.10
2018-06-17T16:41:23.969Z,62.20
2018-06-17T16:43:59.645Z,62.30
2018-06-17T16:46:27.913Z,62.30
2018-06-17T16:49:06.113Z,61.10
2018-06-17T16:51:45.043Z,61.00
2018-06-17T16:54:24.537Z,62.50
2018-06-17T16:56:58.106Z,62.20
2018-06-17T16:59:40.727Z,62.20
2018-06-17T17:02:08.963Z,62.20
2018-06-17T17:04:37.200Z,62.90
2018-06-17T17:07:05.534Z,62.90
2018-06-17T17:09:33.745Z,63.90
2018-06-17T17:12:01.931Z,63.20
2018-06-17T17:14:30.129Z,63.00
2018-06-17T17:16:58.286Z,63.70
2018-06-17T17:19:26.554Z,63.90
2018-06-17T17:21:54.879Z,62.90
2018-06-17T17:24:23.101Z,63.60
2018-06-17T17:26:51.267Z,66.60
2018-06-17T17:29:19.516Z,65.40
2018-06-17T17:31:52.960Z,73.00
2018-06-17T17:34:26.346Z,75.20
2018-06-17T17:39:33.570Z,77.00
2018-06-17T17:42:01.726Z,77.90
2018-06-17T17:44:34.120Z,80.80
2018-06-17T17:47:07.598Z,90.10
2018-06-17T17:49:35.890Z,93.20
2018-06-17T17:52:04.120Z,98.30
2018-06-17T17:54:32.441Z,99.00
2018-06-17T17:57:00.633Z,99.90
2018-06-17T17:59:28.923Z,99.90
2018-06-17T18:01:57.164Z,99.90
2018-06-17T18:04:25.467Z,99.90
2018-06-17T18:06:53.733Z,99.90
2018-06-17T18:09:22.129Z,99.90
2018-06-17T18:11:50.346Z,99.90
2018-06-17T18:14:18.627Z,99.90
2018-06-17T18:16:46.927Z,99.90
2018-06-17T18:19:15.215Z,99.90
2018-06-17T18:21:48.042Z,99.90
2018-06-17T18:24:17.366Z,99.90
2018-06-17T18:26:50.782Z,99.90
2018-06-17T18:29:24.403Z,99.90
2018-06-17T18:31:57.715Z,99.90
2018-06-17T18:34:31.145Z,99.90
2018-06-17T18:36:59.346Z,99.90
2018-06-17T18:39:27.663Z,99.90
2018-06-17T18:41:55.939Z,99.90
2018-06-17T18:44:24.143Z,99.90
2018-06-17T18:46:52.414Z,99.90
2018-06-17T18:49:20.644Z,99.90
2018-06-17T18:51:48.971Z,99.90
2018-06-17T18:54:17.272Z,99.90
2018-06-17T18:56:45.503Z,99.90
2018-06-17T18:59:13.762Z,99.90
2018-06-17T19:01:42.003Z,99.90
2018-06-17T19:04:10.259Z,99.90
2018-06-17T19:06:38.518Z,99.90
2018-06-17T19:09:12.796Z,99.90
2018-06-17T19:11:46.709Z,99.90
2018-06-17T19:14:20.169Z,99.90
2018-06-17T19:16:53.530Z,99.90
2018-06-17T19:19:21.970Z,99.90
2018-06-17T19:21:50.399Z,99.90
2018-06-17T19:24:18.636Z,99.90
2018-06-17T19:26:46.935Z,99.90
2018-06-17T19:29:15.145Z,99.90
2018-06-17T19:31:43.360Z,99.90
2018-06-17T19:34:11.616Z,99.90
2018-06-17T19:36:39.794Z,99.90
2018-06-17T19:39:08.671Z,99.90
2018-06-17T19:41:36.961Z,99.90
2018-06-17T19:44:05.274Z,99.90
2018-06-17T19:46:33.508Z,99.90
2018-06-17T19:49:01.766Z,99.90
2018-06-17T19:52:33.071Z,99.90
2018-06-17T19:55:06.513Z,99.90
2018-06-17T19:57:40.090Z,99.90
2018-06-17T20:00:13.690Z,99.90
2018-06-17T20:02:41.976Z,99.90
2018-06-17T20:05:10.222Z,99.90
2018-06-17T20:07:38.507Z,99.90
2018-06-17T20:10:06.898Z,99.90
2018-06-17T20:12:35.199Z,99.90
2018-06-17T20:15:03.447Z,99.90
2018-06-17T20:17:31.859Z,99.90
2018-06-17T20:20:00.098Z,99.90
2018-06-17T20:22:28.260Z,99.90
2018-06-17T20:25:02.721Z,99.90
2018-06-17T20:27:31.055Z,99.90
2018-06-17T20:29:59.304Z,99.90
2018-06-17T20:32:32.866Z,99.90
2018-06-17T20:35:06.343Z,99.90
2018-06-17T20:37:39.799Z,99.90
2018-06-17T20:40:13.309Z,99.90
2018-06-17T20:42:46.762Z,99.90
2018-06-17T20:45:15.305Z,99.90
2018-06-17T20:47:43.564Z,99.90
2018-06-17T20:50:21.157Z,99.90
2018-06-17T20:52:49.575Z,99.90
2018-06-17T20:55:17.905Z,99.90
2018-06-17T20:57:51.266Z,99.90
2018-06-17T21:00:20.139Z,99.90
2018-06-17T21:02:48.394Z,99.90
2018-06-17T21:05:28.678Z,99.90
2018-06-17T21:07:57.000Z,99.90
2018-06-17T21:10:25.277Z,99.90
2018-06-17T21:12:53.532Z,99.90
2018-06-17T21:15:21.690Z,99.90
2018-06-17T21:17:51.023Z,99.90
2018-06-17T21:20:24.753Z,99.90
2018-06-17T21:22:58.270Z,99.90
2018-06-17T21:25:31.791Z,99.90
2018-06-17T21:28:01.362Z,99.90
2018-06-17T21:30:29.873Z,99.90
2018-06-17T21:32:58.096Z,99.90
2018-06-17T21:35:26.391Z,99.90
2018-06-17T21:37:55.373Z,99.90
2018-06-17T21:40:23.646Z,99.90
2018-06-17T21:42:51.811Z,99.90
2018-06-17T21:45:20.135Z,99.90
2018-06-17T21:47:48.355Z,99.90
2018-06-17T21:50:16.584Z,99.90
2018-06-17T21:52:44.938Z,99.90
2018-06-17T21:55:13.225Z,99.90
2018-06-17T21:57:41.447Z,99.90
2018-06-17T22:00:10.267Z,99.90
2018-06-17T22:02:43.124Z,99.90
2018-06-17T22:05:11.500Z,99.90
2018-06-17T22:07:44.910Z,99.90
2018-06-17T22:11:20.836Z,99.90
2018-06-17T22:13:54.373Z,99.90
2018-06-17T22:16:27.853Z,99.90
2018-06-17T22:18:56.070Z,99.90
2018-06-17T22:21:24.426Z,99.90
2018-06-17T22:23:52.622Z,99.90
2018-06-17T22:26:20.860Z,99.90
2018-06-17T22:28:49.090Z,99.90
2018-06-17T22:31:17.335Z,99.90
2018-06-17T22:33:45.587Z,99.90
2018-06-17T22:36:13.782Z,99.90
2018-06-17T22:38:41.978Z,99.90
2018-06-17T22:41:15.738Z,99.90
2018-06-17T22:43:43.985Z,99.90
2018-06-17T22:46:12.222Z,99.90
2018-06-17T22:48:40.395Z,99.90
2018-06-17T22:51:08.699Z,99.90
2018-06-17T22:53:42.363Z,99.90
2018-06-17T22:56:15.881Z,99.90
2018-06-17T22:58:49.256Z,99.90
2018-06-17T23:01:22.785Z,99.90
2018-06-17T23:03:56.238Z,99.90
2018-06-17T23:06:29.563Z,99.90
2018-06-17T23:09:02.982Z,99.90
2018-06-17T23:11:31.326Z,99.90
2018-06-17T23:13:59.575Z,99.90
2018-06-17T23:16:27.857Z,99.90
2018-06-17T23:18:56.107Z,99.90
2018-06-17T23:21:24.314Z,99.90
2018-06-17T23:23:52.719Z,99.90
2018-06-17T23:26:20.931Z,99.90
2018-06-17T23:28:49.215Z,99.90
2018-06-17T23:31:17.479Z,99.90
2018-06-17T23:33:45.797Z,99.90
2018-06-17T23:36:14.019Z,99.90
2018-06-17T23:38:42.247Z,99.90
2018-06-17T23:41:10.560Z,99.90
2018-06-17T23:43:38.800Z,99.90
2018-06-17T23:46:12.328Z,99.90
2018-06-17T23:49:47.580Z,99.90
2018-06-17T23:52:21.092Z,99.90
2018-06-17T23:54:54.596Z,99.90
2018-06-17T23:57:22.870Z,99.90
2018-06-17T23:59:51.125Z,99.90
